Time;durP1;ratioP1;P1;durP2;ratioP2;P2;SDS_P1;SDS_P2;PMS_P1;PMS_P2;Temp;Humidity;BMP_temperature;BMP_pressure;BME280_temperature;BME280_humidity;BME280_pressure;Samples;Min_cycle;Max_cycle;Signal;HPM_P1;HPM_P2
2023/07/22 00:00:43;;;;;;;0.70;0.70;;;;;;;;;;5014815;28;20444;-73
2023/07/22 00:03:10;;;;;;;1.33;1.23;;;;;;;;;;5011114;28;20907;-76
2023/07/22 00:05:37;;;;;;;0.70;0.60;;;;;;;;;;5023295;28;20447;-76
2023/07/22 00:08:05;;;;;;;3.50;1.00;;;;;;;;;;5030955;28;20456;-76
2023/07/22 00:10:32;;;;;;;0.70;0.70;;;;;;;;;;5028109;28;20444;-75
2023/07/22 00:12:59;;;;;;;0.70;0.60;;;;;;;;;;5016706;28;20889;-74
2023/07/22 00:15:25;;;;;;;1.00;0.80;;;;;;;;;;5028586;28;20444;-75
2023/07/22 00:17:52;;;;;;;0.70;0.63;;;;;;;;;;5012513;28;20443;-75
2023/07/22 00:20:19;;;;;;;0.80;0.70;;;;;;;;;;5027072;28;20436;-74
2023/07/22 00:22:46;;;;;;;0.70;0.60;;;;;;;;;;5028257;28;20623;-76
2023/07/22 00:25:15;;;;;;;0.70;0.70;;;;;;;;;;5015512;28;20493;-75
2023/07/22 00:27:41;;;;;;;2.50;0.97;;;;;;;;;;5025586;28;20429;-74
2023/07/22 00:30:09;;;;;;;0.80;0.80;;;;;;;;;;5014787;28;20623;-74
2023/07/22 00:32:39;;;;;;;0.70;0.60;;;;;;;;;;5024872;28;20528;-74
2023/07/22 00:35:06;;;;;;;0.70;0.60;;;;;;;;;;5024269;28;20509;-74
2023/07/22 00:37:33;;;;;;;0.80;0.70;;;;;;;;;;5011229;28;20472;-75
2023/07/22 00:40:00;;;;;;;1.03;0.97;;;;;;;;;;5015455;28;20474;-74
2023/07/22 00:42:29;;;;;;;0.77;0.77;;;;;;;;;;5015443;28;20464;-74
2023/07/22 00:44:55;;;;;;;0.70;0.70;;;;;;;;;;5011841;28;20429;-76
2023/07/22 00:47:22;;;;;;;0.70;0.70;;;;;;;;;;5023247;28;20442;-75
2023/07/22 00:49:49;;;;;;;0.70;0.70;;;;;;;;;;4997778;28;20439;-75
2023/07/22 00:52:16;;;;;;;0.70;0.70;;;;;;;;;;5028958;28;20472;-76
2023/07/22 00:54:43;;;;;;;0.73;0.73;;;;;;;;;;5014204;28;20461;-75
2023/07/22 00:57:11;;;;;;;0.80;0.77;;;;;;;;;;5024029;28;20441;-76
2023/07/22 00:59:40;;;;;;;0.70;0.60;;;;;;;;;;5014628;28;20434;-73
2023/07/22 01:02:07;;;;;;;0.70;0.60;;;;;;;;;;5015059;28;20445;-78
2023/07/22 01:04:34;;;;;;;0.70;0.70;;;;;;;;;;5022201;28;20433;-75
2023/07/22 01:07:03;;;;;;;0.70;0.70;;;;;;;;;;5006908;28;20441;-75
2023/07/22 01:09:33;;;;;;;0.70;0.67;;;;;;;;;;5025989;28;20437;-76
2023/07/22 01:12:00;;;;;;;0.70;0.63;;;;;;;;;;5018617;28;20447;-76
2023/07/22 01:14:27;;;;;;;0.70;0.70;;;;;;;;;;5024365;28;20476;-74
2023/07/22 01:16:55;;;;;;;0.83;0.83;;;;;;;;;;5029106;28;20823;-73
2023/07/22 01:19:22;;;;;;;0.70;0.60;;;;;;;;;;5001527;28;20444;-73
2023/07/22 01:21:49;;;;;;;0.70;0.70;;;;;;;;;;5012430;28;20427;-76
2023/07/22 01:24:17;;;;;;;1.67;1.57;;;;;;;;;;5023734;28;20439;-76
2023/07/22 01:26:44;;;;;;;0.70;0.60;;;;;;;;;;4997963;28;20531;-75
2023/07/22 01:29:11;;;;;;;0.80;0.77;;;;;;;;;;4997053;28;20970;-75
2023/07/22 01:31:37;;;;;;;5.17;4.20;;;;;;;;;;5025346;28;20458;-74
2023/07/22 01:34:04;;;;;;;0.70;0.70;;;;;;;;;;5026302;28;20476;-75
2023/07/22 01:36:30;;;;;;;0.70;0.60;;;;;;;;;;5027300;28;20486;-74
2023/07/22 01:38:57;;;;;;;0.70;0.70;;;;;;;;;;5023249;28;20532;-75
2023/07/22 01:41:25;;;;;;;0.70;0.63;;;;;;;;;;5024645;28;20433;-75
2023/07/22 01:43:52;;;;;;;0.97;0.87;;;;;;;;;;5011872;28;20590;-76
2023/07/22 01:46:18;;;;;;;0.83;0.83;;;;;;;;;;5012455;28;20440;-76
2023/07/22 01:48:45;;;;;;;0.80;0.80;;;;;;;;;;5008944;28;20437;-77
2023/07/22 01:51:12;;;;;;;0.80;0.70;;;;;;;;;;5007708;28;20788;-76
2023/07/22 01:53:38;;;;;;;0.70;0.70;;;;;;;;;;4995094;28;20531;-75
2023/07/22 01:56:05;;;;;;;0.90;0.90;;;;;;;;;;5012489;28;20563;-75
2023/07/22 01:58:33;;;;;;;0.80;0.77;;;;;;;;;;5015281;28;20795;-76
2023/07/22 02:01:00;;;;;;;0.90;0.80;;;;;;;;;;5007252;28;20837;-75
2023/07/22 02:03:27;;;;;;;0.70;0.70;;;;;;;;;;5023125;28;20483;-75
2023/07/22 02:06:00;;;;;;;0.70;0.60;;;;;;;;;;5011728;28;20443;-77
2023/07/22 02:08:27;;;;;;;0.80;0.80;;;;;;;;;;5001303;28;20469;-76
2023/07/22 02:10:54;;;;;;;0.80;0.80;;;;;;;;;;5025658;28;20511;-78
2023/07/22 02:13:20;;;;;;;0.90;0.90;;;;;;;;;;5013622;28;20470;-76
2023/07/22 02:15:48;;;;;;;0.80;0.80;;;;;;;;;;5012784;28;20832;-76
2023/07/22 02:18:15;;;;;;;0.80;0.80;;;;;;;;;;5005305;28;20441;-77
2023/07/22 02:20:42;;;;;;;0.80;0.77;;;;;;;;;;5014396;28;20442;-77
2023/07/22 02:23:09;;;;;;;0.70;0.70;;;;;;;;;;4996008;28;20516;-77
2023/07/22 02:25:36;;;;;;;0.70;0.70;;;;;;;;;;5012633;28;20456;-75
2023/07/22 02:28:03;;;;;;;0.80;0.77;;;;;;;;;;5013177;28;20448;-75
2023/07/22 02:30:30;;;;;;;0.83;0.83;;;;;;;;;;5021443;28;20940;-76
2023/07/22 02:32:58;;;;;;;0.70;0.70;;;;;;;;;;5007465;28;20458;-77
2023/07/22 02:35:24;;;;;;;0.80;0.70;;;;;;;;;;5026406;28;20504;-78
2023/07/22 02:37:51;;;;;;;1.00;0.90;;;;;;;;;;5022373;28;20459;-77
2023/07/22 02:40:18;;;;;;;0.80;0.80;;;;;;;;;;5012410;28;20444;-77
2023/07/22 02:42:44;;;;;;;0.70;0.60;;;;;;;;;;5009745;28;20441;-77
2023/07/22 02:45:12;;;;;;;0.70;0.70;;;;;;;;;;5011402;28;20443;-77
2023/07/22 02:47:39;;;;;;;0.80;0.70;;;;;;;;;;5009415;28;20450;-76
2023/07/22 02:50:08;;;;;;;0.80;0.70;;;;;;;;;;5022852;28;20469;-77
2023/07/22 02:52:36;;;;;;;0.70;0.60;;;;;;;;;;5009661;28;20477;-76
2023/07/22 02:55:07;;;;;;;0.90;0.90;;;;;;;;;;5007343;28;20478;-76
2023/07/22 02:57:34;;;;;;;1.63;1.53;;;;;;;;;;5013135;28;20539;-79
2023/07/22 03:00:04;;;;;;;0.70;0.63;;;;;;;;;;5020749;28;20824;-79
2023/07/22 03:02:32;;;;;;;0.80;0.80;;;;;;;;;;5009708;28;21013;-78
2023/07/22 03:04:58;;;;;;;0.70;0.60;;;;;;;;;;5005259;28;20444;-78
2023/07/22 03:07:27;;;;;;;0.80;0.80;;;;;;;;;;5012253;28;20561;-78
2023/07/22 03:09:53;;;;;;;0.80;0.73;;;;;;;;;;5010732;28;20477;-78
2023/07/22 03:12:20;;;;;;;0.80;0.70;;;;;;;;;;5008161;28;20441;-78
2023/07/22 03:14:47;;;;;;;0.70;0.70;;;;;;;;;;5009678;28;20474;-77
2023/07/22 03:17:16;;;;;;;0.70;0.70;;;;;;;;;;5021939;28;20495;-77
2023/07/22 03:19:43;;;;;;;0.80;0.77;;;;;;;;;;5008106;28;21115;-77
2023/07/22 03:22:09;;;;;;;0.70;0.70;;;;;;;;;;4992765;28;20519;-77
2023/07/22 03:24:38;;;;;;;0.70;0.70;;;;;;;;;;5012229;28;20469;-78
2023/07/22 03:27:06;;;;;;;0.80;0.80;;;;;;;;;;5021146;28;20440;-76
2023/07/22 03:29:32;;;;;;;1.17;1.07;;;;;;;;;;5007575;28;20487;-77
2023/07/22 03:31:59;;;;;;;0.70;0.70;;;;;;;;;;5009828;28;20445;-77
2023/07/22 03:34:26;;;;;;;0.70;0.70;;;;;;;;;;5009620;28;20884;-79
2023/07/22 03:36:53;;;;;;;0.70;0.70;;;;;;;;;;5011814;28;20472;-77
2023/07/22 03:39:20;;;;;;;2.17;1.17;;;;;;;;;;5008712;28;20436;-78
2023/07/22 03:41:48;;;;;;;0.80;0.80;;;;;;;;;;5025086;28;20418;-78
2023/07/22 03:44:14;;;;;;;0.90;0.90;;;;;;;;;;5013400;28;20434;-76
2023/07/22 03:46:41;;;;;;;0.80;0.70;;;;;;;;;;5007960;28;20474;-76
2023/07/22 03:49:08;;;;;;;0.80;0.80;;;;;;;;;;5020522;28;20449;-77
2023/07/22 03:51:35;;;;;;;0.70;0.70;;;;;;;;;;5011656;28;20480;-80
2023/07/22 03:54:02;;;;;;;0.70;0.70;;;;;;;;;;4992103;28;20527;-77
2023/07/22 03:56:28;;;;;;;0.70;0.70;;;;;;;;;;5008960;28;20924;-79
2023/07/22 03:58:57;;;;;;;0.70;0.60;;;;;;;;;;5008614;28;21035;-79
2023/07/22 04:01:23;;;;;;;0.70;0.60;;;;;;;;;;5006873;28;20890;-77
2023/07/22 04:03:50;;;;;;;0.73;0.70;;;;;;;;;;5023469;28;20435;-76
2023/07/22 04:06:17;;;;;;;0.70;0.70;;;;;;;;;;4992024;28;20444;-77
2023/07/22 04:08:45;;;;;;;1.20;1.10;;;;;;;;;;5012581;28;20540;-76
2023/07/22 04:11:13;;;;;;;0.90;0.90;;;;;;;;;;5005958;28;20433;-78
2023/07/22 04:13:40;;;;;;;1.23;1.17;;;;;;;;;;5019210;28;20492;-78
2023/07/22 04:16:09;;;;;;;1.33;1.23;;;;;;;;;;5023788;28;20466;-78
2023/07/22 04:18:35;;;;;;;0.83;0.83;;;;;;;;;;4994862;28;20530;-76
2023/07/22 04:21:02;;;;;;;0.80;0.80;;;;;;;;;;5005115;28;20475;-77
2023/07/22 04:23:29;;;;;;;0.70;0.70;;;;;;;;;;4993370;28;20460;-78
2023/07/22 04:25:56;;;;;;;0.70;0.67;;;;;;;;;;5012375;28;20429;-77
2023/07/22 04:28:24;;;;;;;0.70;0.60;;;;;;;;;;5020683;28;20433;-75
2023/07/22 04:30:57;;;;;;;0.70;0.70;;;;;;;;;;5007646;28;20451;-78
2023/07/22 04:33:26;;;;;;;1.13;1.07;;;;;;;;;;5018628;28;20575;-78
2023/07/22 04:35:53;;;;;;;0.70;0.70;;;;;;;;;;5001958;28;20473;-77
2023/07/22 04:38:20;;;;;;;0.77;0.70;;;;;;;;;;5018953;28;20468;-78
2023/07/22 04:40:46;;;;;;;0.70;0.70;;;;;;;;;;5016135;28;20437;-76
2023/07/22 04:43:19;;;;;;;0.73;0.70;;;;;;;;;;5026554;28;20513;-74
2023/07/22 04:45:48;;;;;;;0.70;0.70;;;;;;;;;;5027259;28;20423;-77
2023/07/22 04:48:15;;;;;;;0.90;0.90;;;;;;;;;;5016455;28;20438;-77
2023/07/22 04:50:45;;;;;;;8.33;1.73;;;;;;;;;;5016471;28;20491;-77
2023/07/22 04:53:13;;;;;;;0.70;0.70;;;;;;;;;;5012220;28;20512;-77
2023/07/22 04:55:40;;;;;;;0.90;0.90;;;;;;;;;;5010549;28;20559;-79
2023/07/22 04:58:06;;;;;;;1.03;0.87;;;;;;;;;;5025502;28;20521;-79
2023/07/22 05:00:33;;;;;;;1.33;1.23;;;;;;;;;;5027697;28;20452;-77
2023/07/22 05:03:00;;;;;;;0.80;0.80;;;;;;;;;;5009144;28;20603;-78
2023/07/22 05:05:28;;;;;;;0.80;0.80;;;;;;;;;;5014521;28;20495;-77
2023/07/22 05:07:56;;;;;;;0.80;0.70;;;;;;;;;;5004426;28;20968;-79
2023/07/22 05:10:24;;;;;;;0.80;0.77;;;;;;;;;;5022723;28;20538;-79
2023/07/22 05:12:50;;;;;;;0.70;0.70;;;;;;;;;;5008488;28;20438;-77
2023/07/22 05:15:17;;;;;;;0.70;0.70;;;;;;;;;;5011753;28;21062;-79
2023/07/22 05:17:43;;;;;;;0.83;0.83;;;;;;;;;;5011254;28;20496;-78
2023/07/22 05:20:10;;;;;;;0.70;0.70;;;;;;;;;;5026533;28;20440;-75
2023/07/22 05:22:38;;;;;;;0.80;0.80;;;;;;;;;;5010247;28;20876;-78
2023/07/22 05:25:06;;;;;;;0.90;0.90;;;;;;;;;;5010264;28;20873;-77
2023/07/22 05:27:33;;;;;;;0.83;0.83;;;;;;;;;;5006734;28;20556;-78
2023/07/22 05:30:00;;;;;;;0.80;0.73;;;;;;;;;;5024152;28;20461;-76
2023/07/22 05:32:28;;;;;;;0.80;0.80;;;;;;;;;;4996029;28;20536;-76
2023/07/22 05:34:59;;;;;;;1.13;1.03;;;;;;;;;;4998376;28;20471;-77
2023/07/22 05:37:26;;;;;;;3.13;2.40;;;;;;;;;;5008746;28;20847;-79
2023/07/22 05:39:53;;;;;;;2.00;1.90;;;;;;;;;;5006052;28;20446;-80
2023/07/22 05:42:21;;;;;;;0.80;0.70;;;;;;;;;;5012495;28;20509;-80
2023/07/22 05:44:48;;;;;;;0.70;0.60;;;;;;;;;;5013345;28;21006;-81
2023/07/22 05:47:15;;;;;;;0.80;0.80;;;;;;;;;;5012631;28;20847;-78
2023/07/22 05:49:44;;;;;;;0.70;0.70;;;;;;;;;;5010590;28;20980;-79
2023/07/22 05:52:11;;;;;;;0.80;0.80;;;;;;;;;;5025663;28;20473;-78
2023/07/22 05:54:39;;;;;;;0.70;0.70;;;;;;;;;;5022549;28;20565;-79
2023/07/22 05:57:06;;;;;;;0.80;0.70;;;;;;;;;;5023642;28;21147;-76
2023/07/22 05:59:36;;;;;;;0.80;0.80;;;;;;;;;;5008224;28;20448;-76
2023/07/22 06:02:04;;;;;;;0.70;0.70;;;;;;;;;;5011055;28;20830;-77
2023/07/22 06:04:30;;;;;;;1.40;1.10;;;;;;;;;;5013167;28;20450;-79
2023/07/22 06:06:57;;;;;;;1.17;0.90;;;;;;;;;;5014567;28;20445;-78
2023/07/22 06:09:24;;;;;;;0.73;0.70;;;;;;;;;;5013268;28;20488;-78
2023/07/22 06:11:51;;;;;;;1.17;1.07;;;;;;;;;;5009542;28;20460;-78
2023/07/22 06:14:18;;;;;;;0.90;0.90;;;;;;;;;;5024950;28;20780;-78
2023/07/22 06:16:46;;;;;;;0.73;0.70;;;;;;;;;;5014887;28;20463;-77
2023/07/22 06:19:14;;;;;;;3.87;2.10;;;;;;;;;;5011338;28;20440;-78
2023/07/22 06:21:40;;;;;;;0.80;0.80;;;;;;;;;;5010021;28;20450;-78
2023/07/22 06:24:07;;;;;;;1.00;1.00;;;;;;;;;;5025939;28;20439;-77
2023/07/22 06:26:34;;;;;;;0.80;0.80;;;;;;;;;;5024131;28;20791;-79
2023/07/22 06:29:01;;;;;;;0.70;0.60;;;;;;;;;;5008572;28;20451;-77
2023/07/22 06:31:30;;;;;;;0.90;0.90;;;;;;;;;;5021982;28;20515;-80
2023/07/22 06:33:59;;;;;;;0.80;0.70;;;;;;;;;;5013447;28;20851;-78
2023/07/22 06:36:26;;;;;;;0.80;0.73;;;;;;;;;;5023493;28;20465;-79
2023/07/22 06:38:54;;;;;;;0.70;0.67;;;;;;;;;;5023906;28;20456;-80
2023/07/22 06:41:23;;;;;;;0.80;0.80;;;;;;;;;;5005866;28;20485;-78
2023/07/22 06:43:50;;;;;;;0.80;0.80;;;;;;;;;;5009564;28;21080;-77
2023/07/22 06:46:17;;;;;;;0.70;0.70;;;;;;;;;;5025906;28;20434;-76
2023/07/22 06:48:44;;;;;;;0.80;0.77;;;;;;;;;;5025732;28;20443;-77
2023/07/22 06:51:12;;;;;;;0.83;0.83;;;;;;;;;;5025867;28;20464;-78
2023/07/22 06:53:39;;;;;;;0.70;0.70;;;;;;;;;;5007744;28;20602;-79
2023/07/22 06:56:05;;;;;;;1.33;1.23;;;;;;;;;;5008098;28;20474;-78
2023/07/22 06:58:32;;;;;;;0.80;0.80;;;;;;;;;;5023721;28;20451;-79
2023/07/22 07:00:59;;;;;;;2.30;2.10;;;;;;;;;;5010761;28;21130;-80
2023/07/22 07:03:26;;;;;;;2.10;1.10;;;;;;;;;;5006559;28;20447;-79
2023/07/22 07:05:53;;;;;;;0.70;0.70;;;;;;;;;;5014300;28;20438;-78
2023/07/22 07:08:21;;;;;;;0.80;0.80;;;;;;;;;;5010343;28;20532;-79
2023/07/22 07:10:48;;;;;;;0.80;0.80;;;;;;;;;;5008491;28;21515;-79
2023/07/22 07:13:14;;;;;;;0.80;0.70;;;;;;;;;;5024221;28;20457;-77
2023/07/22 07:15:41;;;;;;;1.63;1.53;;;;;;;;;;5020706;28;20484;-79
2023/07/22 07:18:09;;;;;;;0.80;0.70;;;;;;;;;;5008715;28;20531;-79
2023/07/22 07:20:35;;;;;;;0.80;0.80;;;;;;;;;;5005049;28;20456;-80
2023/07/22 07:23:02;;;;;;;0.80;0.80;;;;;;;;;;5012637;28;20511;-79
2023/07/22 07:25:31;;;;;;;1.00;0.80;;;;;;;;;;5025288;28;20437;-80
2023/07/22 07:27:57;;;;;;;1.37;1.27;;;;;;;;;;5012422;28;20430;-80
2023/07/22 07:30:24;;;;;;;1.67;1.13;;;;;;;;;;5025960;28;21351;-80
2023/07/22 07:32:50;;;;;;;0.80;0.70;;;;;;;;;;5018876;28;20449;-78
2023/07/22 07:35:17;;;;;;;0.80;0.77;;;;;;;;;;5022481;28;20471;-81
2023/07/22 07:37:44;;;;;;;1.10;1.00;;;;;;;;;;5007737;28;20498;-80
2023/07/22 07:40:11;;;;;;;1.00;0.90;;;;;;;;;;5020674;28;20437;-80
2023/07/22 07:42:39;;;;;;;1.63;1.53;;;;;;;;;;5023389;28;20464;-78
2023/07/22 07:45:07;;;;;;;0.70;0.67;;;;;;;;;;5005015;28;20454;-80
2023/07/22 07:47:34;;;;;;;1.00;0.83;;;;;;;;;;5009643;28;20444;-78
2023/07/22 07:50:01;;;;;;;0.90;0.90;;;;;;;;;;5011897;28;20659;-79
2023/07/22 07:52:28;;;;;;;1.23;0.93;;;;;;;;;;5021394;28;20473;-79
2023/07/22 07:54:54;;;;;;;1.10;1.00;;;;;;;;;;5009212;28;20453;-79
2023/07/22 07:57:21;;;;;;;5.30;1.43;;;;;;;;;;5010981;28;20976;-77
2023/07/22 07:59:49;;;;;;;0.80;0.80;;;;;;;;;;5012063;28;20871;-78
2023/07/22 08:02:16;;;;;;;0.80;0.70;;;;;;;;;;5007246;28;20429;-80
2023/07/22 08:04:44;;;;;;;1.00;0.90;;;;;;;;;;5023007;28;20491;-79
2023/07/22 08:07:15;;;;;;;0.80;0.77;;;;;;;;;;5023175;28;20460;-80
2023/07/22 08:09:41;;;;;;;1.63;1.50;;;;;;;;;;5008210;28;20461;-78
2023/07/22 08:12:09;;;;;;;0.80;0.73;;;;;;;;;;5023007;28;20931;-80
2023/07/22 08:14:36;;;;;;;0.80;0.80;;;;;;;;;;4998561;28;20476;-79
2023/07/22 08:17:04;;;;;;;1.00;1.00;;;;;;;;;;5015557;28;20477;-81
2023/07/22 08:19:30;;;;;;;0.73;0.70;;;;;;;;;;5009475;28;20473;-79
2023/07/22 08:21:58;;;;;;;0.83;0.83;;;;;;;;;;5016338;28;20780;-77
2023/07/22 08:24:25;;;;;;;1.00;1.00;;;;;;;;;;5009694;28;20903;-78
2023/07/22 08:26:51;;;;;;;1.20;1.10;;;;;;;;;;5015042;28;20476;-78
2023/07/22 08:29:18;;;;;;;0.80;0.70;;;;;;;;;;5019827;28;20838;-79
2023/07/22 08:31:45;;;;;;;1.00;0.90;;;;;;;;;;5025155;28;20470;-80
2023/07/22 08:34:13;;;;;;;1.23;0.90;;;;;;;;;;5029094;28;20411;-80
2023/07/22 08:36:41;;;;;;;0.80;0.80;;;;;;;;;;4993662;28;20468;-79
2023/07/22 08:39:07;;;;;;;0.80;0.77;;;;;;;;;;5026552;28;20862;-81
2023/07/22 08:41:35;;;;;;;1.57;1.30;;;;;;;;;;5015226;28;20559;-80
2023/07/22 08:44:04;;;;;;;1.00;0.90;;;;;;;;;;5016748;28;20444;-80
2023/07/22 08:46:32;;;;;;;0.80;0.80;;;;;;;;;;4990557;28;20438;-79
2023/07/22 08:49:00;;;;;;;0.70;0.70;;;;;;;;;;5006698;28;20444;-81
2023/07/22 08:51:29;;;;;;;0.80;0.80;;;;;;;;;;5012889;28;20423;-81
2023/07/22 08:53:56;;;;;;;1.47;1.37;;;;;;;;;;5028310;28;20468;-79
2023/07/22 08:56:36;;;;;;;0.70;0.70;;;;;;;;;;5023641;28;20464;-80
2023/07/22 08:59:06;;;;;;;0.80;0.73;;;;;;;;;;5026177;28;20911;-80
2023/07/22 09:01:33;;;;;;;1.80;1.50;;;;;;;;;;5014002;28;20515;-81
2023/07/22 09:04:00;;;;;;;2.13;1.63;;;;;;;;;;5011728;28;20434;-81
2023/07/22 09:06:28;;;;;;;1.27;0.90;;;;;;;;;;5025677;28;20425;-79
2023/07/22 09:08:56;;;;;;;0.70;0.70;;;;;;;;;;5025575;28;20464;-80
2023/07/22 09:11:23;;;;;;;0.70;0.63;;;;;;;;;;5016733;28;20423;-80
2023/07/22 09:13:51;;;;;;;1.00;0.80;;;;;;;;;;5013405;28;20824;-78
2023/07/22 09:16:18;;;;;;;0.70;0.70;;;;;;;;;;5022791;28;20483;-79
2023/07/22 09:18:45;;;;;;;1.00;1.00;;;;;;;;;;5014849;28;20415;-79
2023/07/22 09:21:11;;;;;;;0.83;0.83;;;;;;;;;;5022678;28;20532;-79
2023/07/22 09:23:40;;;;;;;0.80;0.77;;;;;;;;;;5011174;28;20475;-79
2023/07/22 09:26:10;;;;;;;2.70;0.80;;;;;;;;;;5021440;28;20444;-78
2023/07/22 09:28:50;;;;;;;0.70;0.70;;;;;;;;;;5013675;28;20452;-79
2023/07/22 09:31:17;;;;;;;0.80;0.80;;;;;;;;;;5004745;28;20482;-77
2023/07/22 09:33:43;;;;;;;1.67;0.97;;;;;;;;;;5014682;28;20448;-80
2023/07/22 09:36:11;;;;;;;2.23;1.37;;;;;;;;;;5026359;28;20532;-79
2023/07/22 09:38:39;;;;;;;1.27;0.93;;;;;;;;;;5023460;28;20981;-76
2023/07/22 09:41:06;;;;;;;1.00;0.90;;;;;;;;;;5015354;28;20480;-79
2023/07/22 09:43:36;;;;;;;0.80;0.70;;;;;;;;;;5025086;28;20437;-79
2023/07/22 09:46:06;;;;;;;1.40;1.30;;;;;;;;;;5027593;28;20774;-78
2023/07/22 09:48:52;;;;;;;1.00;1.00;;;;;;;;;;5022215;28;20921;-79
2023/07/22 09:51:19;;;;;;;0.80;0.70;;;;;;;;;;5022600;28;20445;-79
2023/07/22 09:53:48;;;;;;;0.80;0.70;;;;;;;;;;5007905;28;20550;-79
2023/07/22 09:56:15;;;;;;;1.37;1.27;;;;;;;;;;5024771;28;20497;-81
2023/07/22 09:58:43;;;;;;;1.03;0.80;;;;;;;;;;5013987;28;20535;-80
2023/07/22 10:01:11;;;;;;;0.80;0.80;;;;;;;;;;5013216;28;20449;-75
2023/07/22 10:03:38;;;;;;;0.80;0.70;;;;;;;;;;5022755;28;20438;-75
2023/07/22 10:06:05;;;;;;;0.80;0.70;;;;;;;;;;5023485;28;20446;-78
2023/07/22 10:08:34;;;;;;;0.70;0.60;;;;;;;;;;5013311;28;20479;-79
2023/07/22 10:11:08;;;;;;;0.80;0.80;;;;;;;;;;5022703;28;20440;-76
2023/07/22 10:13:35;;;;;;;1.57;1.47;;;;;;;;;;5029999;28;20432;-77
2023/07/22 10:16:03;;;;;;;0.70;0.67;;;;;;;;;;5020485;28;20484;-75
2023/07/22 10:18:30;;;;;;;0.70;0.60;;;;;;;;;;5024654;28;20910;-74
2023/07/22 10:20:58;;;;;;;0.70;0.60;;;;;;;;;;5012668;28;20524;-75
2023/07/22 10:23:25;;;;;;;0.70;0.60;;;;;;;;;;5015036;28;20480;-76
2023/07/22 10:25:52;;;;;;;0.70;0.60;;;;;;;;;;5021808;28;20929;-77
2023/07/22 10:28:21;;;;;;;0.80;0.70;;;;;;;;;;5024001;28;20473;-76
2023/07/22 10:30:48;;;;;;;0.70;0.60;;;;;;;;;;5016005;28;20449;-76
2023/07/22 10:33:15;;;;;;;0.80;0.70;;;;;;;;;;5013668;28;20810;-75
2023/07/22 10:35:44;;;;;;;1.03;0.97;;;;;;;;;;5007040;28;20519;-76
2023/07/22 10:38:11;;;;;;;0.70;0.60;;;;;;;;;;5021867;28;21290;-77
2023/07/22 10:40:45;;;;;;;1.30;1.20;;;;;;;;;;5008139;28;20429;-79
2023/07/22 10:43:12;;;;;;;0.70;0.70;;;;;;;;;;5014698;28;20445;-75
2023/07/22 10:45:41;;;;;;;0.70;0.60;;;;;;;;;;5023285;28;20857;-77
2023/07/22 10:48:09;;;;;;;0.80;0.60;;;;;;;;;;5024089;28;20430;-76
2023/07/22 10:50:40;;;;;;;0.70;0.60;;;;;;;;;;5020197;28;20495;-76
2023/07/22 10:53:10;;;;;;;1.33;1.23;;;;;;;;;;5013867;28;20465;-77
2023/07/22 10:55:55;;;;;;;1.53;1.43;;;;;;;;;;5019467;28;20445;-77
2023/07/22 10:58:23;;;;;;;0.70;0.60;;;;;;;;;;5019312;28;20524;-77
2023/07/22 11:00:51;;;;;;;0.70;0.50;;;;;;;;;;5015681;28;20532;-79
2023/07/22 11:03:19;;;;;;;0.70;0.60;;;;;;;;;;5012948;28;20446;-77
2023/07/22 11:05:50;;;;;;;1.00;0.73;;;;;;;;;;5012193;28;20544;-76
2023/07/22 11:08:17;;;;;;;0.70;0.50;;;;;;;;;;5008897;28;20453;-76
2023/07/22 11:10:54;;;;;;;0.70;0.60;;;;;;;;;;5011976;28;20469;-75
2023/07/22 11:13:26;;;;;;;0.70;0.60;;;;;;;;;;5021077;28;20484;-78
2023/07/22 11:15:57;;;;;;;0.70;0.50;;;;;;;;;;5011056;28;20456;-76
2023/07/22 11:18:34;;;;;;;0.70;0.60;;;;;;;;;;5004219;28;20451;-76
2023/07/22 11:21:01;;;;;;;0.77;0.67;;;;;;;;;;5023064;28;20433;-76
2023/07/22 11:23:28;;;;;;;0.70;0.50;;;;;;;;;;5011305;28;20923;-75
2023/07/22 11:25:54;;;;;;;0.90;0.80;;;;;;;;;;5021451;28;20468;-75
2023/07/22 11:28:21;;;;;;;0.70;0.50;;;;;;;;;;5024191;28;20536;-78
2023/07/22 11:30:48;;;;;;;0.80;0.70;;;;;;;;;;4996871;28;20481;-75
2023/07/22 11:33:16;;;;;;;0.70;0.70;;;;;;;;;;5027551;28;20996;-79
2023/07/22 11:35:43;;;;;;;0.80;0.60;;;;;;;;;;5004164;28;20442;-79
2023/07/22 11:38:11;;;;;;;1.23;1.10;;;;;;;;;;5023870;28;20568;-77
2023/07/22 11:40:38;;;;;;;0.80;0.60;;;;;;;;;;5019132;28;20500;-78
2023/07/22 11:43:05;;;;;;;0.80;0.70;;;;;;;;;;5013489;28;21010;-77
2023/07/22 11:45:32;;;;;;;0.70;0.50;;;;;;;;;;5023324;28;20774;-76
2023/07/22 11:47:59;;;;;;;0.70;0.57;;;;;;;;;;5011914;28;20483;-80
2023/07/22 11:50:32;;;;;;;0.70;0.60;;;;;;;;;;5011103;28;20528;-80
2023/07/22 11:52:59;;;;;;;0.73;0.60;;;;;;;;;;5020033;28;20476;-75
2023/07/22 11:55:26;;;;;;;1.27;1.17;;;;;;;;;;5008466;28;20456;-76
2023/07/22 11:58:03;;;;;;;0.70;0.60;;;;;;;;;;5021790;28;20859;-79
2023/07/22 12:00:32;;;;;;;0.70;0.50;;;;;;;;;;5010717;28;20453;-76
2023/07/22 12:03:04;;;;;;;0.77;0.60;;;;;;;;;;4995677;28;20559;-79
2023/07/22 12:05:37;;;;;;;1.10;1.00;;;;;;;;;;5022561;28;20443;-77
2023/07/22 12:08:04;;;;;;;0.80;0.70;;;;;;;;;;5020461;28;20807;-77
2023/07/22 12:10:30;;;;;;;1.03;0.80;;;;;;;;;;5025204;28;20480;-77
2023/07/22 12:13:00;;;;;;;0.80;0.60;;;;;;;;;;5024848;28;20425;-76
2023/07/22 12:15:27;;;;;;;1.00;0.90;;;;;;;;;;5023536;28;20914;-75
2023/07/22 12:17:55;;;;;;;0.70;0.60;;;;;;;;;;5020948;28;20530;-75
2023/07/22 12:20:23;;;;;;;1.10;1.00;;;;;;;;;;5020503;28;20441;-76
2023/07/22 12:22:51;;;;;;;1.03;0.93;;;;;;;;;;5021996;28;20507;-77
2023/07/22 12:25:18;;;;;;;1.43;0.93;;;;;;;;;;4994664;28;20579;-75
2023/07/22 12:27:45;;;;;;;0.70;0.60;;;;;;;;;;5008376;28;20425;-75
2023/07/22 12:30:12;;;;;;;0.70;0.50;;;;;;;;;;5023401;28;20453;-76
2023/07/22 12:32:38;;;;;;;0.80;0.60;;;;;;;;;;5019296;28;20479;-76
2023/07/22 12:35:06;;;;;;;0.70;0.50;;;;;;;;;;5023911;28;20487;-74
2023/07/22 12:37:33;;;;;;;0.77;0.60;;;;;;;;;;5020511;28;20476;-74
2023/07/22 12:40:01;;;;;;;0.70;0.50;;;;;;;;;;5021803;28;20496;-76
2023/07/22 12:42:28;;;;;;;2.80;1.43;;;;;;;;;;5010926;28;20429;-76
2023/07/22 12:44:55;;;;;;;0.80;0.60;;;;;;;;;;5022291;28;20496;-76
2023/07/22 12:47:22;;;;;;;0.70;0.60;;;;;;;;;;5008293;28;21188;-80
2023/07/22 12:49:48;;;;;;;0.70;0.50;;;;;;;;;;5009742;28;20497;-79
2023/07/22 12:52:15;;;;;;;1.00;0.60;;;;;;;;;;5006719;28;20480;-79
2023/07/22 12:54:43;;;;;;;0.70;0.50;;;;;;;;;;5008940;28;20515;-79
2023/07/22 12:57:11;;;;;;;0.70;0.50;;;;;;;;;;5010174;28;20466;-80
2023/07/22 12:59:38;;;;;;;0.70;0.57;;;;;;;;;;5019505;28;20465;-79
2023/07/22 13:02:05;;;;;;;0.87;0.73;;;;;;;;;;5027429;28;20448;-75
2023/07/22 13:04:31;;;;;;;0.70;0.50;;;;;;;;;;5012236;28;20817;-75
2023/07/22 13:06:58;;;;;;;0.80;0.70;;;;;;;;;;5025820;28;20483;-77
2023/07/22 13:09:25;;;;;;;0.70;0.50;;;;;;;;;;5025430;28;20874;-79
2023/07/22 13:11:51;;;;;;;0.70;0.50;;;;;;;;;;5029505;28;20523;-80
2023/07/22 13:14:18;;;;;;;;;;;;;;;;;;5023675;28;20789;-75
2023/07/22 13:16:46;;;;;;;0.70;0.60;;;;;;;;;;5010189;28;20423;-75
2023/07/22 13:19:13;;;;;;;1.20;0.90;;;;;;;;;;5028165;28;20273;-77
2023/07/22 13:21:40;;;;;;;0.70;0.50;;;;;;;;;;5028021;28;20498;-75
2023/07/22 13:24:07;;;;;;;0.70;0.50;;;;;;;;;;5029261;28;20490;-76
2023/07/22 13:26:34;;;;;;;1.30;0.77;;;;;;;;;;5013149;28;20441;-75
2023/07/22 13:29:03;;;;;;;0.70;0.50;;;;;;;;;;5007105;28;20875;-76
2023/07/22 13:31:30;;;;;;;0.80;0.70;;;;;;;;;;5014662;28;20846;-76
2023/07/22 13:33:58;;;;;;;0.90;0.80;;;;;;;;;;5026355;28;20941;-74
2023/07/22 13:36:25;;;;;;;0.70;0.50;;;;;;;;;;5013088;28;20445;-75
2023/07/22 13:38:51;;;;;;;1.10;0.97;;;;;;;;;;5023806;28;20476;-76
2023/07/22 13:41:18;;;;;;;;;;;;;;;;;;5026684;28;20345;-76
2023/07/22 13:43:45;;;;;;;;;;;;;;;;;;5014470;28;20058;-75
2023/07/22 13:46:12;;;;;;;;;;;;;;;;;;5021403;28;19999;-75
2023/07/22 13:48:39;;;;;;;0.80;0.60;;;;;;;;;;5022461;28;20201;-74
2023/07/22 13:51:05;;;;;;;;;;;;;;;;;;5024607;28;20276;-74
2023/07/22 13:53:32;;;;;;;;;;;;;;;;;;5006964;28;20027;-77
2023/07/22 13:55:58;;;;;;;;;;;;;;;;;;5025656;28;20044;-77
2023/07/22 13:58:25;;;;;;;;;;;;;;;;;;5013909;28;19944;-76
2023/07/22 14:00:53;;;;;;;0.73;0.63;;;;;;;;;;5019517;28;20280;-76
2023/07/22 14:03:19;;;;;;;;;;;;;;;;;;5028769;28;20316;-75
2023/07/22 14:05:47;;;;;;;0.70;0.50;;;;;;;;;;5009222;28;20419;-75
2023/07/22 14:08:13;;;;;;;;;;;;;;;;;;5015212;28;20037;-75
2023/07/22 14:10:39;;;;;;;1.10;0.60;;;;;;;;;;5024135;28;20179;-75
2023/07/22 14:13:06;;;;;;;0.80;0.60;;;;;;;;;;5023863;28;20463;-76
2023/07/22 14:15:33;;;;;;;0.90;0.80;;;;;;;;;;5021732;28;20785;-74
2023/07/22 14:18:01;;;;;;;0.80;0.50;;;;;;;;;;5020665;28;20815;-75
2023/07/22 14:20:30;;;;;;;1.23;0.67;;;;;;;;;;5025216;28;20817;-73
2023/07/22 14:22:56;;;;;;;0.80;0.60;;;;;;;;;;5009483;28;20461;-77
2023/07/22 14:25:23;;;;;;;1.47;1.37;;;;;;;;;;5025364;28;21045;-76
2023/07/22 14:27:50;;;;;;;0.80;0.50;;;;;;;;;;5026845;28;20447;-77
2023/07/22 14:30:17;;;;;;;0.97;0.60;;;;;;;;;;5022638;28;20433;-74
2023/07/22 14:32:43;;;;;;;0.80;0.50;;;;;;;;;;5026477;28;20463;-74
2023/07/22 14:35:11;;;;;;;0.80;0.50;;;;;;;;;;5025802;28;20491;-76
2023/07/22 14:37:38;;;;;;;1.00;0.90;;;;;;;;;;5013206;28;20477;-80
2023/07/22 14:40:05;;;;;;;0.80;0.60;;;;;;;;;;5011238;28;20882;-75
2023/07/22 14:42:32;;;;;;;0.80;0.50;;;;;;;;;;5021208;28;20433;-76
2023/07/22 14:44:59;;;;;;;0.90;0.70;;;;;;;;;;5012264;28;20444;-75
2023/07/22 14:47:26;;;;;;;0.80;0.60;;;;;;;;;;5008165;28;20500;-75